Time;durP1;ratioP1;P1;durP2;ratioP2;P2;SDS_P1;SDS_P2;PMS_P1;PMS_P2;Temp;Humidity;BMP_temperature;BMP_pressure;BME280_temperature;BME280_humidity;BME280_pressure;Samples;Min_cycle;Max_cycle;Signal;HPM_P1;HPM_P2
2022/05/16 00:02:19;;;;;;;1.02;1.02;;;;;;;;;;10416944;28;20213;-74
2022/05/16 00:07:21;;;;;;;3.83;1.08;;;;;;;;;;10435447;28;20206;-74
2022/05/16 00:12:22;;;;;;;2.33;1.27;;;;;;;;;;10431515;28;21747;-74
2022/05/16 00:17:24;;;;;;;1.17;1.05;;;;;;;;;;10429269;28;20222;-75
2022/05/16 00:22:26;;;;;;;1.77;0.73;;;;;;;;;;10446102;28;20199;-75
2022/05/16 00:27:27;;;;;;;1.02;1.02;;;;;;;;;;10419185;28;20194;-75
2022/05/16 00:32:28;;;;;;;1.17;0.95;;;;;;;;;;10454980;28;20301;-75
2022/05/16 00:37:29;;;;;;;1.10;1.10;;;;;;;;;;10455235;28;20233;-74
2022/05/16 00:42:30;;;;;;;2.67;0.85;;;;;;;;;;10452595;28;20209;-75
2022/05/16 00:47:31;;;;;;;1.13;1.13;;;;;;;;;;10453024;28;20225;-75
2022/05/16 00:52:37;;;;;;;1.80;1.40;;;;;;;;;;10444143;28;20232;-75
2022/05/16 00:57:41;;;;;;;1.38;1.17;;;;;;;;;;10457734;28;20215;-74
2022/05/16 01:08:06;;;;;;;2.15;1.10;;;;;;;;;;10448359;28;20230;-74
2022/05/16 01:13:08;;;;;;;1.35;1.08;;;;;;;;;;10436402;28;20354;-75
2022/05/16 01:18:10;;;;;;;1.67;1.58;;;;;;;;;;10415492;28;20209;-74
2022/05/16 01:23:13;;;;;;;1.27;1.02;;;;;;;;;;10427904;28;20858;-74
2022/05/16 01:28:17;;;;;;;2.00;1.40;;;;;;;;;;10444561;28;20233;-74
2022/05/16 01:33:19;;;;;;;1.67;1.50;;;;;;;;;;10449241;28;20311;-75
2022/05/16 01:38:22;;;;;;;1.98;1.52;;;;;;;;;;10437771;28;20264;-74
2022/05/16 01:43:24;;;;;;;1.48;1.40;;;;;;;;;;10421603;28;20960;-74
2022/05/16 01:48:30;;;;;;;1.48;1.48;;;;;;;;;;10455607;28;20198;-75
2022/05/16 01:53:31;;;;;;;1.77;1.67;;;;;;;;;;10440947;28;20325;-74
2022/05/16 01:58:32;;;;;;;1.95;1.45;;;;;;;;;;10440525;28;20293;-75
2022/05/16 02:03:34;;;;;;;1.92;1.67;;;;;;;;;;10440682;28;20317;-75
2022/05/16 02:08:36;;;;;;;1.90;1.77;;;;;;;;;;10442855;28;20222;-74
2022/05/16 02:13:39;;;;;;;1.90;1.65;;;;;;;;;;10436715;28;20329;-74
2022/05/16 02:18:40;;;;;;;2.45;1.50;;;;;;;;;;10432252;28;20245;-75
2022/05/16 02:29:03;;;;;;;2.15;1.90;;;;;;;;;;10437944;28;20232;-75
2022/05/16 02:34:04;;;;;;;1.80;1.70;;;;;;;;;;10425522;28;20245;-76
2022/05/16 02:39:05;;;;;;;2.17;1.98;;;;;;;;;;10444356;28;20201;-75
2022/05/16 02:44:06;;;;;;;2.00;1.90;;;;;;;;;;10455211;28;20206;-76
2022/05/16 02:49:08;;;;;;;1.60;1.60;;;;;;;;;;10431257;28;20209;-75
2022/05/16 02:54:09;;;;;;;2.05;1.90;;;;;;;;;;10459504;28;20240;-75
2022/05/16 02:59:10;;;;;;;1.83;1.73;;;;;;;;;;10451959;28;20759;-75
2022/05/16 03:04:11;;;;;;;2.30;2.20;;;;;;;;;;10435087;28;20337;-75
2022/05/16 03:09:12;;;;;;;3.15;2.05;;;;;;;;;;10414379;28;20288;-74
2022/05/16 03:14:13;;;;;;;3.00;2.20;;;;;;;;;;10453004;28;20892;-74
2022/05/16 03:19:14;;;;;;;2.00;1.70;;;;;;;;;;10421632;28;20263;-74
2022/05/16 03:24:16;;;;;;;1.85;1.85;;;;;;;;;;10441456;28;20247;-74
2022/05/16 03:29:17;;;;;;;2.67;2.00;;;;;;;;;;10449992;28;20226;-75
2022/05/16 03:34:19;;;;;;;4.50;2.22;;;;;;;;;;10421927;28;20275;-75
2022/05/16 03:44:40;;;;;;;2.72;1.60;;;;;;;;;;10450964;28;21080;-75
2022/05/16 03:49:41;;;;;;;2.05;1.95;;;;;;;;;;10449514;28;20388;-75
2022/05/16 03:54:42;;;;;;;2.45;2.35;;;;;;;;;;10455328;28;20796;-75
2022/05/16 03:59:43;;;;;;;4.90;2.70;;;;;;;;;;10427964;28;20220;-75
2022/05/16 04:04:44;;;;;;;2.60;2.40;;;;;;;;;;10426508;28;21051;-74
2022/05/16 04:09:45;;;;;;;5.28;3.10;;;;;;;;;;10429069;28;20804;-75
2022/05/16 04:14:47;;;;;;;3.15;2.92;;;;;;;;;;10441078;28;20202;-74
2022/05/16 04:19:48;;;;;;;3.95;2.90;;;;;;;;;;10436832;28;20960;-76
2022/05/16 04:24:49;;;;;;;4.32;2.60;;;;;;;;;;10434720;28;20198;-75
2022/05/16 04:29:50;;;;;;;2.42;2.25;;;;;;;;;;10466703;28;20199;-76
2022/05/16 04:34:52;;;;;;;3.22;3.08;;;;;;;;;;10454618;28;20801;-76
2022/05/16 04:39:53;;;;;;;3.03;2.83;;;;;;;;;;10447249;28;20357;-76
2022/05/16 04:44:54;;;;;;;3.10;2.90;;;;;;;;;;10431820;28;20253;-76
2022/05/16 04:49:55;;;;;;;3.38;3.08;;;;;;;;;;10425178;28;20202;-76
2022/05/16 04:54:56;;;;;;;4.57;2.90;;;;;;;;;;10432882;28;20705;-76
2022/05/16 04:59:57;;;;;;;3.15;2.95;;;;;;;;;;10451197;28;20220;-76
2022/05/16 05:04:59;;;;;;;4.07;3.40;;;;;;;;;;10456409;28;20226;-75
2022/05/16 05:15:23;;;;;;;3.63;2.83;;;;;;;;;;10446356;28;20640;-77
2022/05/16 05:20:24;;;;;;;4.30;2.97;;;;;;;;;;10433171;28;20214;-77
2022/05/16 05:25:25;;;;;;;6.78;2.85;;;;;;;;;;10449561;28;20893;-76
2022/05/16 05:30:27;;;;;;;2.85;2.60;;;;;;;;;;10431493;28;20305;-77
2022/05/16 05:35:29;;;;;;;3.15;2.88;;;;;;;;;;10411539;28;20190;-77
2022/05/16 05:40:30;;;;;;;4.50;2.30;;;;;;;;;;10434013;28;20265;-77
2022/05/16 05:45:32;;;;;;;2.30;2.10;;;;;;;;;;10446059;28;20800;-76
2022/05/16 05:50:33;;;;;;;2.13;1.95;;;;;;;;;;10425966;28;20293;-76
2022/05/16 05:55:34;;;;;;;2.78;1.88;;;;;;;;;;10438431;28;20261;-79
2022/05/16 06:00:35;;;;;;;1.67;1.40;;;;;;;;;;10421385;28;20371;-76
2022/05/16 06:05:36;;;;;;;1.60;1.50;;;;;;;;;;10403233;28;20275;-76
2022/05/16 06:10:37;;;;;;;3.63;1.75;;;;;;;;;;10395581;28;20974;-76
2022/05/16 06:15:38;;;;;;;2.67;2.03;;;;;;;;;;10415439;28;20285;-76
2022/05/16 06:20:40;;;;;;;6.55;1.60;;;;;;;;;;10401201;28;20213;-76
2022/05/16 06:25:44;;;;;;;3.90;1.83;;;;;;;;;;10410773;28;20209;-76
2022/05/16 06:30:47;;;;;;;1.70;1.60;;;;;;;;;;10420359;28;21463;-75
2022/05/16 06:35:49;;;;;;;4.35;1.65;;;;;;;;;;10403798;28;20194;-74
2022/05/16 06:40:50;;;;;;;3.72;1.60;;;;;;;;;;10413178;28;20206;-75
2022/05/16 06:45:52;;;;;;;4.53;1.83;;;;;;;;;;10399148;28;20197;-75
2022/05/16 06:50:53;;;;;;;4.40;1.60;;;;;;;;;;10422873;28;20293;-75
2022/05/16 06:55:54;;;;;;;3.30;2.17;;;;;;;;;;10401878;28;20208;-74
2022/05/16 07:00:56;;;;;;;2.00;1.80;;;;;;;;;;10411090;28;20333;-74
2022/05/16 07:05:57;;;;;;;2.20;1.58;;;;;;;;;;10397341;28;20254;-75
2022/05/16 07:10:58;;;;;;;3.00;1.67;;;;;;;;;;10357960;28;20209;-74
2022/05/16 07:15:59;;;;;;;4.70;1.65;;;;;;;;;;10343523;28;20296;-74
2022/05/16 07:21:00;;;;;;;4.43;1.95;;;;;;;;;;10355990;28;20211;-74
2022/05/16 07:31:21;;;;;;;4.20;1.55;;;;;;;;;;10411522;28;20305;-74
2022/05/16 07:36:22;;;;;;;4.85;1.60;;;;;;;;;;10412701;28;20551;-73
2022/05/16 07:41:23;;;;;;;3.13;1.40;;;;;;;;;;10395506;28;20229;-74
2022/05/16 07:46:24;;;;;;;4.07;1.42;;;;;;;;;;10357476;28;20207;-74
2022/05/16 07:51:25;;;;;;;6.60;1.60;;;;;;;;;;10375047;28;20265;-74
2022/05/16 07:56:26;;;;;;;1.48;1.48;;;;;;;;;;10354795;28;20207;-74
2022/05/16 08:01:27;;;;;;;2.15;1.20;;;;;;;;;;10359092;28;20230;-74
2022/05/16 08:06:28;;;;;;;2.20;1.08;;;;;;;;;;10433578;28;20309;-73
2022/05/16 08:11:29;;;;;;;2.08;1.10;;;;;;;;;;10405784;28;21006;-74
2022/05/16 08:16:30;;;;;;;2.20;1.30;;;;;;;;;;10407665;28;20229;-74
2022/05/16 08:21:32;;;;;;;2.30;1.08;;;;;;;;;;10433700;28;20226;-74
2022/05/16 08:26:33;;;;;;;4.82;1.20;;;;;;;;;;10448364;28;20197;-74
2022/05/16 08:31:34;;;;;;;3.42;1.13;;;;;;;;;;10435870;28;20232;-74
2022/05/16 08:42:02;;;;;;;2.30;1.10;;;;;;;;;;10398098;28;20305;-74
2022/05/16 08:47:26;;;;;;;1.17;1.08;;;;;;;;;;10423033;28;20297;-74
2022/05/16 08:52:37;;;;;;;1.02;1.02;;;;;;;;;;10413708;28;20206;-74
2022/05/16 08:57:40;;;;;;;7.68;1.38;;;;;;;;;;10416379;28;20250;-74
2022/05/16 09:02:43;;;;;;;3.92;1.00;;;;;;;;;;10415339;28;20322;-74
2022/05/16 09:07:48;;;;;;;3.92;1.05;;;;;;;;;;10400541;28;20203;-74
2022/05/16 09:12:57;;;;;;;5.15;1.00;;;;;;;;;;10404233;28;20827;-74
2022/05/16 09:18:22;;;;;;;1.52;1.17;;;;;;;;;;10437091;28;20206;-74
2022/05/16 09:23:42;;;;;;;4.03;0.80;;;;;;;;;;10418570;28;20207;-75
2022/05/16 09:28:46;;;;;;;1.75;1.02;;;;;;;;;;10400015;28;20198;-74
2022/05/16 09:33:50;;;;;;;1.60;0.77;;;;;;;;;;10413029;28;20218;-73
2022/05/16 09:38:51;;;;;;;1.38;0.80;;;;;;;;;;10418940;28;20722;-74
2022/05/16 09:44:03;;;;;;;0.82;0.82;;;;;;;;;;10389768;28;20233;-75
2022/05/16 09:49:13;;;;;;;3.42;0.98;;;;;;;;;;10395428;28;20207;-75
2022/05/16 09:54:18;;;;;;;1.13;1.05;;;;;;;;;;10415536;28;20206;-74
2022/05/16 09:59:32;;;;;;;6.72;0.82;;;;;;;;;;10417107;28;20224;-75
2022/05/16 10:04:39;;;;;;;1.17;0.77;;;;;;;;;;10408755;28;20219;-75
2022/05/16 10:09:47;;;;;;;1.33;0.90;;;;;;;;;;10428250;28;20206;-75
2022/05/16 10:14:49;;;;;;;3.45;1.13;;;;;;;;;;10427301;28;20232;-75
2022/05/16 10:19:54;;;;;;;1.67;0.85;;;;;;;;;;10429538;28;20211;-73
2022/05/16 10:24:57;;;;;;;1.17;1.10;;;;;;;;;;10436194;28;20481;-74
2022/05/16 10:30:00;;;;;;;1.50;1.30;;;;;;;;;;10439625;28;20514;-73
2022/05/16 10:35:07;;;;;;;2.75;1.08;;;;;;;;;;10444265;28;20210;-74
2022/05/16 10:40:10;;;;;;;5.18;1.02;;;;;;;;;;10410901;28;20217;-74
2022/05/16 10:45:15;;;;;;;5.63;1.33;;;;;;;;;;10434626;28;20210;-75
2022/05/16 10:50:28;;;;;;;3.45;1.23;;;;;;;;;;10410796;28;20214;-74
2022/05/16 10:55:31;;;;;;;3.63;1.20;;;;;;;;;;10412728;28;20215;-75
2022/05/16 11:00:39;;;;;;;1.58;1.10;;;;;;;;;;10417976;28;20261;-75
2022/05/16 11:05:56;;;;;;;5.00;1.45;;;;;;;;;;10411911;28;20226;-75
2022/05/16 11:11:07;;;;;;;2.45;1.25;;;;;;;;;;10400791;28;21516;-75
2022/05/16 11:16:14;;;;;;;3.53;1.02;;;;;;;;;;10408227;28;20213;-74
2022/05/16 11:21:34;;;;;;;1.60;0.93;;;;;;;;;;10401548;28;20215;-74
2022/05/16 11:26:35;;;;;;;1.30;1.02;;;;;;;;;;10445864;28;20206;-74
2022/05/16 11:31:40;;;;;;;2.75;1.35;;;;;;;;;;10428924;28;20210;-74
2022/05/16 11:37:00;;;;;;;3.03;1.10;;;;;;;;;;10421763;28;20195;-75
2022/05/16 11:42:08;;;;;;;4.53;1.55;;;;;;;;;;10446126;28;20217;-75
2022/05/16 11:47:19;;;;;;;2.55;1.25;;;;;;;;;;10416068;28;20199;-74
2022/05/16 11:52:35;;;;;;;2.78;1.63;;;;;;;;;;10433264;28;20199;-74
2022/05/16 12:03:08;;;;;;;2.55;1.35;;;;;;;;;;10430812;28;20265;-75
2022/05/16 12:08:12;;;;;;;1.52;1.42;;;;;;;;;;10411027;28;20268;-75
2022/05/16 12:13:27;;;;;;;3.30;1.20;;;;;;;;;;10416062;28;20195;-75
2022/05/16 12:18:35;;;;;;;1.67;1.33;;;;;;;;;;10435665;28;20306;-75
2022/05/16 12:23:49;;;;;;;2.42;1.40;;;;;;;;;;10441647;28;20629;-74
2022/05/16 12:29:08;;;;;;;1.73;1.30;;;;;;;;;;10405645;28;20309;-74
2022/05/16 12:34:09;;;;;;;1.60;1.23;;;;;;;;;;10438115;28;20236;-75
2022/05/16 12:39:18;;;;;;;2.92;1.45;;;;;;;;;;10383836;28;20302;-74
2022/05/16 12:44:33;;;;;;;3.13;1.60;;;;;;;;;;10436599;28;20207;-74
2022/05/16 12:49:53;;;;;;;3.90;1.35;;;;;;;;;;10423772;28;20584;-74
2022/05/16 12:55:13;;;;;;;2.45;1.58;;;;;;;;;;10413360;28;20210;-74
2022/05/16 13:00:22;;;;;;;3.38;1.33;;;;;;;;;;10415379;28;20207;-75
2022/05/16 13:05:46;;;;;;;3.75;1.55;;;;;;;;;;10405047;28;20231;-74
2022/05/16 13:10:52;;;;;;;7.20;1.48;;;;;;;;;;10415834;28;20305;-74
2022/05/16 13:15:53;;;;;;;3.03;1.40;;;;;;;;;;10404288;28;20199;-75
2022/05/16 13:20:56;;;;;;;3.97;1.58;;;;;;;;;;10442242;28;20207;-75
2022/05/16 13:31:33;;;;;;;7.47;1.90;;;;;;;;;;10416736;28;20218;-75
2022/05/16 13:36:34;;;;;;;3.47;1.67;;;;;;;;;;10422291;28;20193;-74
2022/05/16 13:41:37;;;;;;;4.32;1.45;;;;;;;;;;10418343;28;20213;-75
2022/05/16 13:46:38;;;;;;;3.50;1.48;;;;;;;;;;10413285;28;20323;-74
2022/05/16 13:51:50;;;;;;;3.47;1.73;;;;;;;;;;10405302;28;20946;-75
2022/05/16 13:56:52;;;;;;;3.38;1.35;;;;;;;;;;10428109;28;20806;-75
2022/05/16 14:01:58;;;;;;;3.55;1.60;;;;;;;;;;10434676;28;20347;-75
2022/05/16 14:07:04;;;;;;;3.22;2.03;;;;;;;;;;10413658;28;20241;-74
2022/05/16 14:12:07;;;;;;;5.85;1.63;;;;;;;;;;10405480;28;20213;-74
2022/05/16 14:17:08;;;;;;;3.70;2.00;;;;;;;;;;10436856;28;20198;-76
2022/05/16 14:22:25;;;;;;;6.50;1.70;;;;;;;;;;10397044;28;20788;-74
2022/05/16 14:27:37;;;;;;;1.80;1.67;;;;;;;;;;10370187;28;20209;-75
2022/05/16 14:32:43;;;;;;;2.70;1.70;;;;;;;;;;10430296;28;20302;-74
2022/05/16 14:37:44;;;;;;;3.30;1.73;;;;;;;;;;10420062;28;20289;-74
2022/05/16 14:42:46;;;;;;;3.20;1.98;;;;;;;;;;10423136;28;20210;-74
2022/05/16 14:47:49;;;;;;;5.30;1.95;;;;;;;;;;10402638;28;20289;-74
2022/05/16 14:52:55;;;;;;;6.10;2.00;;;;;;;;;;10418719;28;20206;-74
2022/05/16 14:57:56;;;;;;;3.83;1.98;;;;;;;;;;10404436;28;20207;-74
2022/05/16 15:08:19;;;;;;;3.33;2.10;;;;;;;;;;10382786;28;20213;-74
2022/05/16 15:13:21;;;;;;;10.63;1.92;;;;;;;;;;10375604;28;20196;-74
2022/05/16 15:18:22;;;;;;;2.47;1.77;;;;;;;;;;10399376;28;20215;-74
2022/05/16 15:23:24;;;;;;;5.38;2.40;;;;;;;;;;10394391;28;20195;-74
2022/05/16 15:28:25;;;;;;;4.25;2.10;;;;;;;;;;10379765;28;20879;-74
2022/05/16 15:33:26;;;;;;;4.80;2.25;;;;;;;;;;10407992;28;20254;-74
2022/05/16 15:38:27;;;;;;;5.03;2.58;;;;;;;;;;10378337;28;20228;-74
2022/05/16 15:43:28;;;;;;;5.72;2.05;;;;;;;;;;10396524;28;20252;-74
2022/05/16 15:48:29;;;;;;;3.35;1.75;;;;;;;;;;10381805;28;20254;-74
2022/05/16 15:53:31;;;;;;;3.13;2.00;;;;;;;;;;10397450;28;20202;-75
2022/05/16 15:58:32;;;;;;;6.45;2.30;;;;;;;;;;10392115;28;20716;-75
2022/05/16 16:08:57;;;;;;;5.00;2.70;;;;;;;;;;10433192;28;20206;-75
2022/05/16 16:13:58;;;;;;;2.63;2.42;;;;;;;;;;10442510;28;20206;-76
2022/05/16 16:19:01;;;;;;;6.20;2.83;;;;;;;;;;10443240;28;20237;-76
2022/05/16 16:24:02;;;;;;;8.48;3.17;;;;;;;;;;10424431;28;20213;-76
2022/05/16 16:29:03;;;;;;;6.25;2.78;;;;;;;;;;10445074;28;20210;-76
2022/05/16 16:34:05;;;;;;;4.95;3.13;;;;;;;;;;10442678;28;20223;-76
2022/05/16 16:39:06;;;;;;;4.20;3.30;;;;;;;;;;10434411;28;20719;-76
2022/05/16 16:44:09;;;;;;;3.78;2.80;;;;;;;;;;10433835;28;20198;-75
2022/05/16 16:49:11;;;;;;;4.00;3.50;;;;;;;;;;10452013;28;20213;-76
2022/05/16 16:59:33;;;;;;;3.28;2.80;;;;;;;;;;10418215;28;20340;-76
2022/05/16 17:04:34;;;;;;;2.63;2.50;;;;;;;;;;10441714;28;20222;-76
2022/05/16 17:09:37;;;;;;;3.45;2.60;;;;;;;;;;10427160;28;20215;-76
2022/05/16 17:14:38;;;;;;;5.10;3.30;;;;;;;;;;10454401;28;20263;-76
2022/05/16 17:19:41;;;;;;;3.40;3.20;;;;;;;;;;10426659;28;20218;-75
2022/05/16 17:24:42;;;;;;;3.53;3.17;;;;;;;;;;10435389;28;20244;-76
2022/05/16 17:29:43;;;;;;;5.55;2.80;;;;;;;;;;10425246;28;20202;-76
2022/05/16 17:34:45;;;;;;;3.20;3.00;;;;;;;;;;10451720;28;20214;-76
2022/05/16 17:39:46;;;;;;;4.35;2.65;;;;;;;;;;10422825;28;20337;-76
2022/05/16 17:44:47;;;;;;;3.03;2.83;;;;;;;;;;10452418;28;20202;-76
2022/05/16 17:49:49;;;;;;;3.03;2.78;;;;;;;;;;10423577;28;20239;-75
2022/05/16 17:54:51;;;;;;;3.33;2.70;;;;;;;;;;10426044;28;20212;-75
2022/05/16 17:59:53;;;;;;;3.30;2.60;;;;;;;;;;10415929;28;20303;-75
2022/05/16 18:04:55;;;;;;;7.60;2.80;;;;;;;;;;10415464;28;20308;-75
2022/05/16 18:09:56;;;;;;;3.08;2.88;;;;;;;;;;10436868;28;20541;-74
2022/05/16 18:14:57;;;;;;;2.60;2.53;;;;;;;;;;10418034;28;20209;-75
2022/05/16 18:19:58;;;;;;;2.95;2.75;;;;;;;;;;10415505;28;20238;-75
2022/05/16 18:25:00;;;;;;;2.75;2.55;;;;;;;;;;10436824;28;20206;-75
2022/05/16 18:30:04;;;;;;;4.78;2.88;;;;;;;;;;10439828;28;21037;-75
2022/05/16 18:35:05;;;;;;;5.32;3.92;;;;;;;;;;10404565;28;20219;-75
2022/05/16 18:40:07;;;;;;;4.30;3.90;;;;;;;;;;10440535;28;20217;-76
2022/05/16 18:50:44;;;;;;;5.22;3.70;;;;;;;;;;10440268;28;20199;-77
2022/05/16 18:55:46;;;;;;;7.07;4.07;;;;;;;;;;10423495;28;20195;-77
2022/05/16 19:00:49;;;;;;;4.35;4.10;;;;;;;;;;10429936;28;20651;-77
2022/05/16 19:05:51;;;;;;;3.85;3.55;;;;;;;;;;10363772;28;20260;-76
2022/05/16 19:10:57;;;;;;;4.32;4.03;;;;;;;;;;10360581;28;20195;-77
2022/05/16 19:15:58;;;;;;;3.90;3.60;;;;;;;;;;10357184;28;20221;-78
2022/05/16 19:20:59;;;;;;;4.78;4.35;;;;;;;;;;10355165;28;20438;-77
2022/05/16 19:26:00;;;;;;;5.10;4.70;;;;;;;;;;10382157;28;20204;-77
2022/05/16 19:36:21;;;;;;;5.68;5.38;;;;;;;;;;10376983;28;20291;-77
2022/05/16 19:41:23;;;;;;;9.57;5.60;;;;;;;;;;10390163;28;20211;-78
2022/05/16 19:46:25;;;;;;;6.88;6.30;;;;;;;;;;10381985;28;20207;-79
2022/05/16 19:51:26;;;;;;;11.20;7.60;;;;;;;;;;10368617;28;20200;-78
2022/05/16 19:56:27;;;;;;;11.30;7.28;;;;;;;;;;10362174;28;20200;-78
2022/05/16 20:01:28;;;;;;;11.27;8.35;;;;;;;;;;10387547;28;20273;-77
2022/05/16 20:06:30;;;;;;;9.20;8.23;;;;;;;;;;10406737;28;20525;-76
2022/05/16 20:11:31;;;;;;;13.45;6.82;;;;;;;;;;10424386;28;20280;-76
2022/05/16 20:16:33;;;;;;;7.72;7.20;;;;;;;;;;10438158;28;20202;-77
2022/05/16 20:21:34;;;;;;;11.18;7.03;;;;;;;;;;10400825;28;20309;-76
2022/05/16 20:26:35;;;;;;;9.75;7.38;;;;;;;;;;10444232;28;20293;-76
2022/05/16 20:31:37;;;;;;;8.57;7.72;;;;;;;;;;10446699;28;20237;-76
2022/05/16 20:36:38;;;;;;;9.43;8.05;;;;;;;;;;10438120;28;20218;-76
2022/05/16 20:41:41;;;;;;;10.52;9.55;;;;;;;;;;10455843;28;20252;-76
2022/05/16 20:46:42;;;;;;;9.63;8.57;;;;;;;;;;10456219;28;20214;-76
2022/05/16 20:51:43;;;;;;;8.27;7.47;;;;;;;;;;10463412;28;20209;-76
2022/05/16 20:56:44;;;;;;;11.38;10.25;;;;;;;;;;10445973;28;20210;-76
2022/05/16 21:01:46;;;;;;;11.75;10.70;;;;;;;;;;10462692;28;20224;-77
2022/05/16 21:06:47;;;;;;;12.43;11.32;;;;;;;;;;10454893;28;20225;-76
2022/05/16 21:11:48;;;;;;;9.82;8.90;;;;;;;;;;10447980;28;20206;-77
2022/05/16 21:16:49;;;;;;;13.07;11.88;;;;;;;;;;10411303;28;20807;-77
2022/05/16 21:21:50;;;;;;;14.02;12.55;;;;;;;;;;10419613;28;20246;-78
2022/05/16 21:26:51;;;;;;;13.77;12.35;;;;;;;;;;10422116;28;20202;-78
2022/05/16 21:31:52;;;;;;;15.50;12.20;;;;;;;;;;10445816;28;20206;-79
2022/05/16 21:36:54;;;;;;;11.63;10.60;;;;;;;;;;10445896;28;20191;-79
2022/05/16 21:41:55;;;;;;;12.15;10.18;;;;;;;;;;10413057;28;20217;-78
2022/05/16 21:46:56;;;;;;;11.82;9.63;;;;;;;;;;10436555;28;20256;-79
2022/05/16 21:51:57;;;;;;;11.82;10.68;;;;;;;;;;10452820;28;20202;-79
2022/05/16 21:56:59;;;;;;;14.30;10.77;;;;;;;;;;10425233;28;20206;-79
2022/05/16 22:02:01;;;;;;;14.02;12.50;;;;;;;;;;10443688;28;20229;-78
2022/05/16 22:07:02;;;;;;;15.60;12.20;;;;;;;;;;10420389;28;20364;-79
2022/05/16 22:12:06;;;;;;;9.45;8.50;;;;;;;;;;10443903;28;20213;-80
2022/05/16 22:17:07;;;;;;;8.77;7.85;;;;;;;;;;10440636;28;20749;-77
2022/05/16 22:22:08;;;;;;;9.48;8.55;;;;;;;;;;10437733;28;20238;-78
2022/05/16 22:27:09;;;;;;;9.43;8.63;;;;;;;;;;10411929;28;20198;-79
2022/05/16 22:32:10;;;;;;;9.40;8.48;;;;;;;;;;10445887;28;20349;-78
2022/05/16 22:37:11;;;;;;;8.85;8.02;;;;;;;;;;10407347;28;20212;-79
2022/05/16 22:42:18;;;;;;;10.65;9.13;;;;;;;;;;10387549;28;20210;-77
2022/05/16 22:47:19;;;;;;;11.27;9.57;;;;;;;;;;10421626;28;20202;-77
2022/05/16 22:52:20;;;;;;;10.95;9.80;;;;;;;;;;10428162;28;20206;-76
2022/05/16 22:57:23;;;;;;;11.02;9.80;;;;;;;;;;10423579;28;20194;-76
2022/05/16 23:07:44;;;;;;;10.02;9.05;;;;;;;;;;10460044;28;20311;-76
2022/05/16 23:12:45;;;;;;;10.25;9.43;;;;;;;;;;10433205;28;20726;-75
2022/05/16 23:17:46;;;;;;;9.55;8.65;;;;;;;;;;10449073;28;20211;-75
2022/05/16 23:22:47;;;;;;;9.70;8.90;;;;;;;;;;10420351;28;20352;-76
2022/05/16 23:27:49;;;;;;;12.32;11.02;;;;;;;;;;10444805;28;20217;-75
2022/05/16 23:32:51;;;;;;;13.00;11.68;;;;;;;;;;10435904;28;20275;-76
2022/05/16 23:37:52;;;;;;;14.27;12.50;;;;;;;;;;10450432;28;20214;-75
2022/05/16 23:42:54;;;;;;;16.85;14.70;;;;;;;;;;10428651;28;20210;-76
2022/05/16 23:47:55;;;;;;;25.65;18.85;;;;;;;;;;10433846;28;20210;-75
2022/05/16 23:52:56;;;;;;;24.98;21.05;;;;;;;;;;10428381;28;20197;-76
2022/05/16 23:57:57;;;;;;;20.90;18.67;;;;;;;;;;10437112;28;20485;-76
